sensor_id;sensor_type;location;lat;lon;timestamp;pressure;altitude;pressure_sealevel;temperature;humidity
32237;BME280;18726;44.732;10.550;2022-10-26T00:00:24;101602.72;;;15.75;100.00
32237;BME280;18726;44.732;10.550;2022-10-26T00:03:29;101610.53;;;15.92;100.00
32237;BME280;18726;44.732;10.550;2022-10-26T00:06:33;101609.97;;;16.02;100.00
32237;BME280;18726;44.732;10.550;2022-10-26T00:09:36;101617.91;;;16.07;100.00
32237;BME280;18726;44.732;10.550;2022-10-26T00:12:39;101624.97;;;16.08;100.00
32237;BME280;18726;44.732;10.550;2022-10-26T00:15:43;101618.16;;;16.21;100.00
32237;BME280;18726;44.732;10.550;2022-10-26T00:18:47;101608.53;;;16.08;100.00
32237;BME280;18726;44.732;10.550;2022-10-26T00:21:51;101613.41;;;15.80;100.00
32237;BME280;18726;44.732;10.550;2022-10-26T00:24:54;101612.59;;;15.44;100.00
32237;BME280;18726;44.732;10.550;2022-10-26T00:27:58;101607.84;;;15.10;100.00
32237;BME280;18726;44.732;10.550;2022-10-26T00:31:07;101599.75;;;14.98;100.00
32237;BME280;18726;44.732;10.550;2022-10-26T00:34:11;101603.56;;;14.93;100.00
32237;BME280;18726;44.732;10.550;2022-10-26T00:37:15;101602.75;;;14.93;100.00
32237;BME280;18726;44.732;10.550;2022-10-26T00:40:19;101611.50;;;14.98;100.00
32237;BME280;18726;44.732;10.550;2022-10-26T00:46:36;101609.31;;;15.39;100.00
32237;BME280;18726;44.732;10.550;2022-10-26T00:49:41;101599.72;;;15.29;100.00
32237;BME280;18726;44.732;10.550;2022-10-26T00:52:52;101604.16;;;15.18;100.00
32237;BME280;18726;44.732;10.550;2022-10-26T00:55:57;101588.09;;;15.01;100.00
32237;BME280;18726;44.732;10.550;2022-10-26T00:59:04;101575.03;;;14.78;100.00
32237;BME280;18726;44.732;10.550;2022-10-26T01:02:08;101578.81;;;14.74;100.00
32237;BME280;18726;44.732;10.550;2022-10-26T01:05:13;101586.41;;;14.80;100.00
32237;BME280;18726;44.732;10.550;2022-10-26T01:08:17;101571.00;;;14.72;100.00
32237;BME280;18726;44.732;10.550;2022-10-26T01:11:21;101572.94;;;14.72;100.00
32237;BME280;18726;44.732;10.550;2022-10-26T01:14:26;101572.41;;;14.66;100.00
32237;BME280;18726;44.732;10.550;2022-10-26T01:21:13;101590.41;;;14.99;100.00
32237;BME280;18726;44.732;10.550;2022-10-26T01:27:37;101573.22;;;15.33;100.00
32237;BME280;18726;44.732;10.550;2022-10-26T01:30:44;101568.69;;;15.41;100.00
32237;BME280;18726;44.732;10.550;2022-10-26T01:33:57;101583.50;;;15.05;100.00
32237;BME280;18726;44.732;10.550;2022-10-26T01:37:09;101579.81;;;14.81;100.00
32237;BME280;18726;44.732;10.550;2022-10-26T01:40:35;101583.97;;;14.91;100.00
32237;BME280;18726;44.732;10.550;2022-10-26T01:43:49;101576.28;;;14.97;100.00
32237;BME280;18726;44.732;10.550;2022-10-26T01:46:57;101575.03;;;14.78;100.00
32237;BME280;18726;44.732;10.550;2022-10-26T01:50:02;101572.94;;;14.72;100.00
32237;BME280;18726;44.732;10.550;2022-10-26T01:53:06;101568.16;;;14.69;100.00
32237;BME280;18726;44.732;10.550;2022-10-26T01:56:18;101564.63;;;14.68;100.00
32237;BME280;18726;44.732;10.550;2022-10-26T02:02:58;101553.94;;;14.95;100.00
32237;BME280;18726;44.732;10.550;2022-10-26T02:06:18;101557.13;;;14.97;100.00
32237;BME280;18726;44.732;10.550;2022-10-26T02:12:47;101569.75;;;15.36;100.00
32237;BME280;18726;44.732;10.550;2022-10-26T02:15:59;101562.50;;;15.44;100.00
32237;BME280;18726;44.732;10.550;2022-10-26T02:22:24;101580.28;;;15.34;100.00
32237;BME280;18726;44.732;10.550;2022-10-26T02:25:31;101583.88;;;15.38;100.00
32237;BME280;18726;44.732;10.550;2022-10-26T02:28:38;101578.69;;;15.33;100.00
32237;BME280;18726;44.732;10.550;2022-10-26T02:31:46;101582.75;;;15.39;100.00
32237;BME280;18726;44.732;10.550;2022-10-26T02:34:50;101579.72;;;15.44;100.00
32237;BME280;18726;44.732;10.550;2022-10-26T02:37:58;101575.22;;;15.52;100.00
32237;BME280;18726;44.732;10.550;2022-10-26T02:41:03;101582.91;;;15.46;100.00
32237;BME280;18726;44.732;10.550;2022-10-26T02:44:15;101576.72;;;15.49;100.00
32237;BME280;18726;44.732;10.550;2022-10-26T02:47:20;101569.69;;;15.33;100.00
32237;BME280;18726;44.732;10.550;2022-10-26T02:54:29;101557.91;;;14.81;100.00
32237;BME280;18726;44.732;10.550;2022-10-26T02:57:39;101562.41;;;14.74;100.00
32237;BME280;18726;44.732;10.550;2022-10-26T03:00:45;101555.09;;;14.62;100.00
32237;BME280;18726;44.732;10.550;2022-10-26T03:03:56;101550.94;;;14.52;100.00
32237;BME280;18726;44.732;10.550;2022-10-26T03:07:00;101558.16;;;14.45;100.00
32237;BME280;18726;44.732;10.550;2022-10-26T03:10:04;101554.13;;;14.27;100.00
32237;BME280;18726;44.732;10.550;2022-10-26T03:13:08;101561.69;;;14.17;100.00
32237;BME280;18726;44.732;10.550;2022-10-26T03:16:12;101562.66;;;14.53;100.00
32237;BME280;18726;44.732;10.550;2022-10-26T03:19:15;101568.44;;;14.64;100.00
32237;BME280;18726;44.732;10.550;2022-10-26T03:22:19;101562.00;;;14.28;100.00
32237;BME280;18726;44.732;10.550;2022-10-26T03:25:23;101565.56;;;14.16;100.00
32237;BME280;18726;44.732;10.550;2022-10-26T03:28:27;101567.09;;;14.14;100.00
32237;BME280;18726;44.732;10.550;2022-10-26T03:31:31;101567.69;;;14.07;100.00
32237;BME280;18726;44.732;10.550;2022-10-26T03:34:35;101556.34;;;13.93;100.00
32237;BME280;18726;44.732;10.550;2022-10-26T03:37:39;101559.13;;;14.09;100.00
32237;BME280;18726;44.732;10.550;2022-10-26T03:40:43;101568.69;;;14.43;100.00
32237;BME280;18726;44.732;10.550;2022-10-26T03:43:47;101554.47;;;14.53;100.00
32237;BME280;18726;44.732;10.550;2022-10-26T03:46:51;101548.38;;;14.44;100.00
32237;BME280;18726;44.732;10.550;2022-10-26T03:49:55;101533.56;;;14.17;100.00
32237;BME280;18726;44.732;10.550;2022-10-26T03:52:59;101538.56;;;13.99;100.00
32237;BME280;18726;44.732;10.550;2022-10-26T03:56:03;101537.88;;;13.74;100.00
32237;BME280;18726;44.732;10.550;2022-10-26T03:59:07;101538.94;;;13.58;100.00
32237;BME280;18726;44.732;10.550;2022-10-26T04:02:10;101538.13;;;13.57;100.00
32237;BME280;18726;44.732;10.550;2022-10-26T04:05:15;101547.91;;;13.58;100.00
32237;BME280;18726;44.732;10.550;2022-10-26T04:08:18;101547.38;;;13.52;100.00
32237;BME280;18726;44.732;10.550;2022-10-26T04:11:22;101544.38;;;13.58;100.00
32237;BME280;18726;44.732;10.550;2022-10-26T04:14:26;101538.00;;;13.66;100.00
32237;BME280;18726;44.732;10.550;2022-10-26T04:17:30;101548.00;;;13.74;100.00
32237;BME280;18726;44.732;10.550;2022-10-26T04:20:33;101548.00;;;13.74;100.00
32237;BME280;18726;44.732;10.550;2022-10-26T04:23:39;101554.94;;;13.71;100.00
32237;BME280;18726;44.732;10.550;2022-10-26T04:26:42;101547.38;;;13.52;100.00
32237;BME280;18726;44.732;10.550;2022-10-26T04:29:47;101552.03;;;13.52;100.00
32237;BME280;18726;44.732;10.550;2022-10-26T04:32:51;101558.50;;;13.60;100.00
32237;BME280;18726;44.732;10.550;2022-10-26T04:36:01;101565.53;;;13.61;100.00
32237;BME280;18726;44.732;10.550;2022-10-26T04:39:05;101558.50;;;13.60;100.00
32237;BME280;18726;44.732;10.550;2022-10-26T04:42:09;101564.41;;;13.62;100.00
32237;BME280;18726;44.732;10.550;2022-10-26T04:45:14;101554.16;;;13.71;100.00
32237;BME280;18726;44.732;10.550;2022-10-26T04:48:18;101547.31;;;13.77;100.00
32237;BME280;18726;44.732;10.550;2022-10-26T04:51:21;101548.84;;;13.90;100.00
32237;BME280;18726;44.732;10.550;2022-10-26T04:54:25;101554.94;;;13.99;100.00
32237;BME280;18726;44.732;10.550;2022-10-26T04:57:29;101557.13;;;14.22;100.00
32237;BME280;18726;44.732;10.550;2022-10-26T05:00:33;101556.31;;;14.21;100.00
32237;BME280;18726;44.732;10.550;2022-10-26T05:03:37;101561.19;;;14.28;100.00
32237;BME280;18726;44.732;10.550;2022-10-26T05:06:40;101564.38;;;14.30;100.00
32237;BME280;18726;44.732;10.550;2022-10-26T05:09:44;101564.69;;;14.12;100.00
32237;BME280;18726;44.732;10.550;2022-10-26T05:12:55;101571.13;;;14.20;100.00
32237;BME280;18726;44.732;10.550;2022-10-26T05:15:59;101584.28;;;14.14;100.00
32237;BME280;18726;44.732;10.550;2022-10-26T05:19:03;101581.97;;;14.16;100.00
32237;BME280;18726;44.732;10.550;2022-10-26T05:22:06;101582.94;;;14.08;100.00
32237;BME280;18726;44.732;10.550;2022-10-26T05:25:10;101571.44;;;14.03;100.00
32237;BME280;18726;44.732;10.550;2022-10-26T05:28:15;101571.63;;;14.38;100.00
32237;BME280;18726;44.732;10.550;2022-10-26T05:31:19;101575.03;;;14.63;100.00
32237;BME280;18726;44.732;10.550;2022-10-26T05:34:23;101571.00;;;14.72;100.00
32237;BME280;18726;44.732;10.550;2022-10-26T05:37:28;101584.03;;;14.79;100.00
32237;BME280;18726;44.732;10.550;2022-10-26T05:40:32;101597.38;;;14.37;100.00
32237;BME280;18726;44.732;10.550;2022-10-26T05:43:35;101588.56;;;14.15;100.00
32237;BME280;18726;44.732;10.550;2022-10-26T05:46:39;101594.09;;;14.03;100.00
32237;BME280;18726;44.732;10.550;2022-10-26T05:49:43;101596.47;;;14.33;100.00
32237;BME280;18726;44.732;10.550;2022-10-26T05:52:47;101591.41;;;14.47;100.00
32237;BME280;18726;44.732;10.550;2022-10-26T05:55:54;101604.22;;;14.31;100.00
32237;BME280;18726;44.732;10.550;2022-10-26T05:58:57;101607.75;;;14.59;100.00
32237;BME280;18726;44.732;10.550;2022-10-26T06:02:14;101613.16;;;14.71;100.00
32237;BME280;18726;44.732;10.550;2022-10-26T06:05:25;101623.91;;;14.80;100.00
32237;BME280;18726;44.732;10.550;2022-10-26T06:08:30;101629.94;;;15.01;100.00
32237;BME280;18726;44.732;10.550;2022-10-26T06:11:34;101625.34;;;14.90;100.00
32237;BME280;18726;44.732;10.550;2022-10-26T06:14:40;101634.25;;;15.02;100.00
32237;BME280;18726;44.732;10.550;2022-10-26T06:28:02;101665.78;;;16.52;100.00
32237;BME280;18726;44.732;10.550;2022-10-26T06:31:12;101655.84;;;17.09;100.00
32237;BME280;18726;44.732;10.550;2022-10-26T06:34:24;101664.25;;;17.42;100.00
32237;BME280;18726;44.732;10.550;2022-10-26T06:37:30;101659.94;;;18.28;100.00
32237;BME280;18726;44.732;10.550;2022-10-26T06:40:37;101661.03;;;19.38;100.00
32237;BME280;18726;44.732;10.550;2022-10-26T06:43:42;101660.50;;;20.49;100.00
32237;BME280;18726;44.732;10.550;2022-10-26T06:47:08;101681.44;;;20.61;100.00
32237;BME280;18726;44.732;10.550;2022-10-26T06:50:36;101685.44;;;21.77;100.00
32237;BME280;18726;44.732;10.550;2022-10-26T06:53:51;101691.59;;;23.07;100.00
32237;BME280;18726;44.732;10.550;2022-10-26T06:56:58;101699.19;;;23.89;100.00
32237;BME280;18726;44.732;10.550;2022-10-26T07:00:18;101711.28;;;24.06;95.30
32237;BME280;18726;44.732;10.550;2022-10-26T07:03:22;101712.91;;;24.95;100.00
32237;BME280;18726;44.732;10.550;2022-10-26T07:06:26;101711.84;;;25.85;86.68
32237;BME280;18726;44.732;10.550;2022-10-26T07:09:30;101717.91;;;26.96;72.77
32237;BME280;18726;44.732;10.550;2022-10-26T07:12:35;101734.44;;;26.31;74.68
32237;BME280;18726;44.732;10.550;2022-10-26T07:15:41;101730.25;;;25.99;77.76
32237;BME280;18726;44.732;10.550;2022-10-26T07:18:46;101729.47;;;26.94;72.36
32237;BME280;18726;44.732;10.550;2022-10-26T07:21:50;101733.03;;;26.78;74.80
32237;BME280;18726;44.732;10.550;2022-10-26T07:24:54;101733.91;;;28.72;65.80
32237;BME280;18726;44.732;10.550;2022-10-26T07:27:58;101746.41;;;29.56;58.08
32237;BME280;18726;44.732;10.550;2022-10-26T07:31:02;101742.13;;;30.43;59.70
32237;BME280;18726;44.732;10.550;2022-10-26T07:34:08;101747.44;;;31.98;52.44
32237;BME280;18726;44.732;10.550;2022-10-26T07:37:12;101749.34;;;33.12;48.48
32237;BME280;18726;44.732;10.550;2022-10-26T07:40:15;101755.34;;;33.77;45.01
32237;BME280;18726;44.732;10.550;2022-10-26T07:43:19;101753.13;;;34.49;43.28
32237;BME280;18726;44.732;10.550;2022-10-26T07:46:24;101756.69;;;35.69;41.61
32237;BME280;18726;44.732;10.550;2022-10-26T07:49:28;101757.81;;;35.98;40.14
32237;BME280;18726;44.732;10.550;2022-10-26T07:52:31;101745.84;;;36.34;40.42
32237;BME280;18726;44.732;10.550;2022-10-26T07:55:36;101752.47;;;37.31;38.81
32237;BME280;18726;44.732;10.550;2022-10-26T07:58:40;101760.97;;;37.96;37.41
32237;BME280;18726;44.732;10.550;2022-10-26T08:01:44;101752.75;;;36.59;37.42
32237;BME280;18726;44.732;10.550;2022-10-26T08:04:48;101759.03;;;35.50;40.11
32237;BME280;18726;44.732;10.550;2022-10-26T08:07:52;101745.44;;;35.14;39.72
32237;BME280;18726;44.732;10.550;2022-10-26T08:10:55;101736.25;;;36.58;38.51
32237;BME280;18726;44.732;10.550;2022-10-26T08:13:59;101743.47;;;36.59;37.91
32237;BME280;18726;44.732;10.550;2022-10-26T08:17:03;101737.16;;;36.17;38.38
32237;BME280;18726;44.732;10.550;2022-10-26T08:20:07;101747.00;;;37.87;37.25
32237;BME280;18726;44.732;10.550;2022-10-26T08:23:11;101749.06;;;35.55;38.79
32237;BME280;18726;44.732;10.550;2022-10-26T08:26:14;101739.56;;;36.25;38.67
32237;BME280;18726;44.732;10.550;2022-10-26T08:29:18;101739.41;;;37.50;37.73
32237;BME280;18726;44.732;10.550;2022-10-26T08:32:21;101746.16;;;39.48;34.66
32237;BME280;18726;44.732;10.550;2022-10-26T08:35:25;101740.94;;;40.95;33.12
32237;BME280;18726;44.732;10.550;2022-10-26T08:38:30;101745.78;;;41.67;31.96
32237;BME280;18726;44.732;10.550;2022-10-26T08:41:34;101745.94;;;41.75;30.95
32237;BME280;18726;44.732;10.550;2022-10-26T08:44:46;101746.97;;;41.34;31.95
32237;BME280;18726;44.732;10.550;2022-10-26T08:47:54;101741.59;;;41.87;31.27
32237;BME280;18726;44.732;10.550;2022-10-26T08:51:03;101735.38;;;41.70;31.98
32237;BME280;18726;44.732;10.550;2022-10-26T08:54:36;101736.03;;;41.38;31.29
32237;BME280;18726;44.732;10.550;2022-10-26T08:57:41;101731.31;;;42.74;30.96
32237;BME280;18726;44.732;10.550;2022-10-26T09:00:47;101728.34;;;43.46;30.13
32237;BME280;18726;44.732;10.550;2022-10-26T09:03:52;101729.03;;;44.28;29.36
32237;BME280;18726;44.732;10.550;2022-10-26T09:10:39;101740.59;;;44.85;28.23
32237;BME280;18726;44.732;10.550;2022-10-26T09:24:33;101738.13;;;45.17;26.73
32237;BME280;18726;44.732;10.550;2022-10-26T09:27:57;101738.41;;;45.42;26.79
32237;BME280;18726;44.732;10.550;2022-10-26T09:31:03;101724.75;;;45.71;27.30
32237;BME280;18726;44.732;10.550;2022-10-26T09:34:34;101729.25;;;46.10;26.85
32237;BME280;18726;44.732;10.550;2022-10-26T09:37:39;101735.75;;;46.26;26.99
32237;BME280;18726;44.732;10.550;2022-10-26T09:41:00;101737.28;;;46.27;25.69
32237;BME280;18726;44.732;10.550;2022-10-26T09:44:28;101725.03;;;46.34;26.41
32237;BME280;18726;44.732;10.550;2022-10-26T09:47:37;101732.31;;;46.20;26.69
32237;BME280;18726;44.732;10.550;2022-10-26T09:50:46;101735.88;;;45.23;28.16
32237;BME280;18726;44.732;10.550;2022-10-26T09:53:50;101740.50;;;45.05;27.86
32237;BME280;18726;44.732;10.550;2022-10-26T09:56:57;101736.16;;;44.55;28.34
32237;BME280;18726;44.732;10.550;2022-10-26T10:00:04;101735.97;;;43.04;28.98
32237;BME280;18726;44.732;10.550;2022-10-26T10:03:29;101727.22;;;41.93;32.03
32237;BME280;18726;44.732;10.550;2022-10-26T10:06:32;101721.94;;;40.78;32.90
32237;BME280;18726;44.732;10.550;2022-10-26T10:09:36;101722.44;;;39.81;35.81
32237;BME280;18726;44.732;10.550;2022-10-26T10:12:39;101722.81;;;38.75;37.48
32237;BME280;18726;44.732;10.550;2022-10-26T10:16:00;101719.44;;;37.82;38.25
32237;BME280;18726;44.732;10.550;2022-10-26T10:19:04;101713.53;;;36.83;40.81
32237;BME280;18726;44.732;10.550;2022-10-26T10:25:42;101727.16;;;36.48;43.36
32237;BME280;18726;44.732;10.550;2022-10-26T10:28:56;101717.53;;;36.34;42.23
32237;BME280;18726;44.732;10.550;2022-10-26T10:32:02;101722.88;;;36.27;41.93
32237;BME280;18726;44.732;10.550;2022-10-26T10:35:22;101728.28;;;35.58;43.39
32237;BME280;18726;44.732;10.550;2022-10-26T10:38:26;101717.19;;;33.91;43.68
32237;BME280;18726;44.732;10.550;2022-10-26T10:41:32;101708.81;;;32.35;55.36
32237;BME280;18726;44.732;10.550;2022-10-26T10:44:39;101707.72;;;32.83;53.77
32237;BME280;18726;44.732;10.550;2022-10-26T10:48:04;101709.59;;;33.58;56.24
32237;BME280;18726;44.732;10.550;2022-10-26T10:51:09;101703.16;;;33.81;54.59
32237;BME280;18726;44.732;10.550;2022-10-26T10:54:36;101704.72;;;33.82;51.91
32237;BME280;18726;44.732;10.550;2022-10-26T11:01:13;101695.88;;;33.51;54.81
32237;BME280;18726;44.732;10.550;2022-10-26T11:04:56;101696.38;;;33.49;50.43
32237;BME280;18726;44.732;10.550;2022-10-26T11:08:11;101689.09;;;32.86;52.76
32237;BME280;18726;44.732;10.550;2022-10-26T11:14:44;101691.16;;;32.85;55.27
32237;BME280;18726;44.732;10.550;2022-10-26T11:17:59;101693.34;;;32.72;54.89
32237;BME280;18726;44.732;10.550;2022-10-26T11:21:27;101684.59;;;32.70;56.64
32237;BME280;18726;44.732;10.550;2022-10-26T11:24:44;101680.53;;;32.71;59.08
32237;BME280;18726;44.732;10.550;2022-10-26T11:28:04;101680.72;;;32.68;58.99
32237;BME280;18726;44.732;10.550;2022-10-26T11:31:15;101675.66;;;32.39;59.01
32237;BME280;18726;44.732;10.550;2022-10-26T11:34:28;101669.72;;;32.46;63.75
32237;BME280;18726;44.732;10.550;2022-10-26T11:44:28;101660.78;;;31.78;67.36
32237;BME280;18726;44.732;10.550;2022-10-26T11:47:47;101659.84;;;31.63;60.38
32237;BME280;18726;44.732;10.550;2022-10-26T11:50:55;101662.34;;;31.79;68.30
32237;BME280;18726;44.732;10.550;2022-10-26T11:54:31;101658.44;;;31.58;59.08
32237;BME280;18726;44.732;10.550;2022-10-26T11:57:34;101662.66;;;31.53;62.85
32237;BME280;18726;44.732;10.550;2022-10-26T12:00:46;101661.44;;;31.45;62.58
32237;BME280;18726;44.732;10.550;2022-10-26T12:03:52;101664.84;;;31.31;60.76
32237;BME280;18726;44.732;10.550;2022-10-26T12:06:58;101665.81;;;30.79;62.98
32237;BME280;18726;44.732;10.550;2022-10-26T12:10:06;101665.63;;;30.73;63.39
32237;BME280;18726;44.732;10.550;2022-10-26T12:13:31;101666.41;;;30.43;63.30
32237;BME280;18726;44.732;10.550;2022-10-26T12:20:00;101665.53;;;30.24;69.43
32237;BME280;18726;44.732;10.550;2022-10-26T12:23:09;101671.13;;;29.80;68.71
32237;BME280;18726;44.732;10.550;2022-10-26T12:29:31;101661.84;;;29.02;80.72
32237;BME280;18726;44.732;10.550;2022-10-26T12:35:44;101653.28;;;29.43;80.66
32237;BME280;18726;44.732;10.550;2022-10-26T12:38:54;101658.00;;;29.68;77.76
32237;BME280;18726;44.732;10.550;2022-10-26T12:45:28;101650.03;;;29.67;80.41
32237;BME280;18726;44.732;10.550;2022-10-26T12:48:43;101641.69;;;29.76;81.92
32237;BME280;18726;44.732;10.550;2022-10-26T12:51:47;101643.78;;;29.84;77.81
32237;BME280;18726;44.732;10.550;2022-10-26T12:58:55;101641.97;;;29.69;82.67
32237;BME280;18726;44.732;10.550;2022-10-26T13:08:47;101638.56;;;29.05;73.08
32237;BME280;18726;44.732;10.550;2022-10-26T13:11:56;101635.66;;;29.08;83.31
32237;BME280;18726;44.732;10.550;2022-10-26T13:15:04;101633.41;;;29.16;79.17
32237;BME280;18726;44.732;10.550;2022-10-26T13:18:14;101630.13;;;29.17;81.61
32237;BME280;18726;44.732;10.550;2022-10-26T13:21:23;101629.78;;;29.28;83.54
32237;BME280;18726;44.732;10.550;2022-10-26T13:24:30;101632.47;;;29.19;76.92
32237;BME280;18726;44.732;10.550;2022-10-26T13:30:46;101640.34;;;29.11;81.29
32237;BME280;18726;44.732;10.550;2022-10-26T13:33:51;101629.06;;;29.02;76.34
32237;BME280;18726;44.732;10.550;2022-10-26T13:40:17;101635.91;;;28.76;82.54
32237;BME280;18726;44.732;10.550;2022-10-26T13:43:24;101628.97;;;28.68;83.34
32237;BME280;18726;44.732;10.550;2022-10-26T13:46:33;101627.84;;;28.65;81.72
32237;BME280;18726;44.732;10.550;2022-10-26T13:49:40;101632.34;;;28.50;78.87
32237;BME280;18726;44.732;10.550;2022-10-26T13:52:52;101634.47;;;28.46;81.56
32237;BME280;18726;44.732;10.550;2022-10-26T13:56:04;101636.53;;;28.16;82.90
32237;BME280;18726;44.732;10.550;2022-10-26T13:59:10;101643.91;;;28.10;84.86
32237;BME280;18726;44.732;10.550;2022-10-26T14:02:24;101639.97;;;28.08;84.86
32237;BME280;18726;44.732;10.550;2022-10-26T14:05:27;101643.66;;;28.05;83.83
32237;BME280;18726;44.732;10.550;2022-10-26T14:08:31;101638.84;;;27.93;84.84
32237;BME280;18726;44.732;10.550;2022-10-26T14:11:52;101640.94;;;27.88;87.72
32237;BME280;18726;44.732;10.550;2022-10-26T14:15:07;101634.25;;;27.86;85.47
32237;BME280;18726;44.732;10.550;2022-10-26T14:18:20;101633.75;;;27.75;86.42
32237;BME280;18726;44.732;10.550;2022-10-26T14:21:24;101637.63;;;27.65;91.17
32237;BME280;18726;44.732;10.550;2022-10-26T14:24:31;101641.41;;;27.58;90.71
32237;BME280;18726;44.732;10.550;2022-10-26T14:27:38;101640.97;;;27.43;90.99
32237;BME280;18726;44.732;10.550;2022-10-26T14:30:44;101641.69;;;27.31;93.03
32237;BME280;18726;44.732;10.550;2022-10-26T14:33:48;101653.38;;;27.26;93.79
32237;BME280;18726;44.732;10.550;2022-10-26T14:37:00;101647.28;;;27.15;92.12
32237;BME280;18726;44.732;10.550;2022-10-26T14:40:06;101658.22;;;27.09;93.45
32237;BME280;18726;44.732;10.550;2022-10-26T14:43:16;101655.47;;;26.89;89.83
32237;BME280;18726;44.732;10.550;2022-10-26T14:46:21;101647.97;;;26.86;95.66
32237;BME280;18726;44.732;10.550;2022-10-26T14:49:26;101651.31;;;26.81;95.52
32237;BME280;18726;44.732;10.550;2022-10-26T14:52:33;101649.81;;;26.77;96.12
32237;BME280;18726;44.732;10.550;2022-10-26T14:55:49;101649.19;;;26.69;97.00
32237;BME280;18726;44.732;10.550;2022-10-26T14:58:53;101649.53;;;26.55;97.04
32237;BME280;18726;44.732;10.550;2022-10-26T15:02:02;101652.56;;;26.44;99.78
32237;BME280;18726;44.732;10.550;2022-10-26T15:08:47;101655.72;;;26.27;99.57
32237;BME280;18726;44.732;10.550;2022-10-26T15:11:56;101657.50;;;26.17;100.00
32237;BME280;18726;44.732;10.550;2022-10-26T15:18:21;101661.78;;;26.02;100.00
32237;BME280;18726;44.732;10.550;2022-10-26T15:21:38;101666.72;;;25.94;100.00
32237;BME280;18726;44.732;10.550;2022-10-26T15:24:43;101674.91;;;25.81;100.00
32237;BME280;18726;44.732;10.550;2022-10-26T15:27:48;101675.13;;;25.71;100.00
32237;BME280;18726;44.732;10.550;2022-10-26T15:34:12;101673.19;;;25.44;100.00
32237;BME280;18726;44.732;10.550;2022-10-26T15:37:16;101676.59;;;25.32;100.00
32237;BME280;18726;44.732;10.550;2022-10-26T15:40:20;101680.38;;;25.18;100.00
32237;BME280;18726;44.732;10.550;2022-10-26T15:43:24;101672.28;;;25.04;100.00
32237;BME280;18726;44.732;10.550;2022-10-26T15:46:32;101677.63;;;24.91;100.00
32237;BME280;18726;44.732;10.550;2022-10-26T15:49:36;101683.78;;;24.79;100.00
32237;BME280;18726;44.732;10.550;2022-10-26T15:52:39;101671.22;;;24.68;100.00
32237;BME280;18726;44.732;10.550;2022-10-26T15:55:44;101684.06;;;24.58;100.00
32237;BME280;18726;44.732;10.550;2022-10-26T15:58:48;101687.41;;;24.46;100.00
32237;BME280;18726;44.732;10.550;2022-10-26T16:01:52;101686.81;;;24.31;100.00
32237;BME280;18726;44.732;10.550;2022-10-26T16:04:55;101689.34;;;24.18;100.00
32237;BME280;18726;44.732;10.550;2022-10-26T16:07:59;101685.88;;;24.07;100.00
32237;BME280;18726;44.732;10.550;2022-10-26T16:11:02;101688.03;;;23.96;100.00
32237;BME280;18726;44.732;10.550;2022-10-26T16:14:07;101691.34;;;23.80;100.00
32237;BME280;18726;44.732;10.550;2022-10-26T16:17:11;101701.06;;;23.62;100.00
32237;BME280;18726;44.732;10.550;2022-10-26T16:20:18;101694.44;;;23.45;100.00
32237;BME280;18726;44.732;10.550;2022-10-26T16:23:25;101697.31;;;23.34;100.00
32237;BME280;18726;44.732;10.550;2022-10-26T16:26:29;101702.09;;;23.30;100.00
32237;BME280;18726;44.732;10.550;2022-10-26T16:29:33;101703.72;;;23.24;100.00
32237;BME280;18726;44.732;10.550;2022-10-26T16:32:36;101715.66;;;23.17;100.00
32237;BME280;18726;44.732;10.550;2022-10-26T16:35:40;101713.78;;;23.07;100.00
32237;BME280;18726;44.732;10.550;2022-10-26T16:38:44;101717.41;;;22.94;100.00
32237;BME280;18726;44.732;10.550;2022-10-26T16:41:48;101717.47;;;22.83;100.00
32237;BME280;18726;44.732;10.550;2022-10-26T16:44:53;101721.47;;;22.78;100.00
32237;BME280;18726;44.732;10.550;2022-10-26T16:47:57;101721.50;;;22.71;100.00
32237;BME280;18726;44.732;10.550;2022-10-26T16:54:20;101735.41;;;22.57;100.00
32237;BME280;18726;44.732;10.550;2022-10-26T16:57:29;101736.59;;;22.52;100.00
32237;BME280;18726;44.732;10.550;2022-10-26T17:00:34;101738.25;;;22.43;100.00
32237;BME280;18726;44.732;10.550;2022-10-26T17:03:38;101749.41;;;22.07;100.00
32237;BME280;18726;44.732;10.550;2022-10-26T17:06:42;101744.72;;;21.65;100.00
32237;BME280;18726;44.732;10.550;2022-10-26T17:09:46;101747.09;;;21.31;100.00
32237;BME280;18726;44.732;10.550;2022-10-26T17:12:51;101758.09;;;21.06;100.00
32237;BME280;18726;44.732;10.550;2022-10-26T17:16:17;101757.69;;;21.01;100.00
32237;BME280;18726;44.732;10.550;2022-10-26T17:19:23;101760.84;;;21.03;100.00
32237;BME280;18726;44.732;10.550;2022-10-26T17:22:28;101771.88;;;20.96;100.00
32237;BME280;18726;44.732;10.550;2022-10-26T17:25:35;101771.06;;;20.92;100.00
32237;BME280;18726;44.732;10.550;2022-10-26T17:28:41;101780.56;;;20.98;100.00
32237;BME280;18726;44.732;10.550;2022-10-26T17:31:45;101781.75;;;20.97;100.00
32237;BME280;18726;44.732;10.550;2022-10-26T17:34:50;101785.28;;;20.94;100.00
32237;BME280;18726;44.732;10.550;2022-10-26T17:37:55;101792.81;;;21.00;100.00
32237;BME280;18726;44.732;10.550;2022-10-26T17:41:02;101807.78;;;20.96;100.00
32237;BME280;18726;44.732;10.550;2022-10-26T17:44:07;101805.81;;;20.96;100.00
32237;BME280;18726;44.732;10.550;2022-10-26T17:47:12;101806.56;;;20.86;100.00
32237;BME280;18726;44.732;10.550;2022-10-26T17:50:17;101810.06;;;20.79;100.00